createdAt,value
2023-03-29T00:04:03.003Z,99961.31
2023-03-29T00:09:06.367Z,99955.75
2023-03-29T00:14:09.350Z,99949.28
2023-03-29T00:19:12.158Z,99943.41
2023-03-29T00:24:15.328Z,99946.22
2023-03-29T00:29:18.043Z,99936.63
2023-03-29T00:34:21.447Z,99930.28
2023-03-29T00:39:24.857Z,99929.69
2023-03-29T00:44:54.090Z,99917.84
2023-03-29T00:50:02.014Z,99907.97
2023-03-29T00:55:10.996Z,99871.47
2023-03-29T01:00:21.257Z,99892.50
2023-03-29T01:05:29.934Z,99888.78
2023-03-29T01:11:19.966Z,99876.47
2023-03-29T01:16:23.532Z,99882.06
2023-03-29T01:21:33.787Z,99874.94
2023-03-29T01:26:58.487Z,99870.41
2023-03-29T01:32:09.342Z,99868.31
2023-03-29T01:37:34.771Z,99867.88
2023-03-29T01:42:44.932Z,99859.97
2023-03-29T01:48:23.163Z,99852.16
2023-03-29T01:53:47.984Z,99857.81
2023-03-29T01:58:53.215Z,99848.28
2023-03-29T02:03:56.899Z,99843.69
2023-03-29T02:09:00.467Z,99830.63
2023-03-29T02:14:03.956Z,99828.75
2023-03-29T02:19:08.257Z,99820.78
2023-03-29T02:24:13.669Z,99818.78
2023-03-29T02:29:16.733Z,99822.72
2023-03-29T02:34:24.905Z,99811.06
2023-03-29T02:39:29.000Z,99797.69
2023-03-29T02:44:33.511Z,99787.00
2023-03-29T02:49:36.609Z,99769.59
2023-03-29T02:54:43.428Z,99764.16
2023-03-29T02:59:46.347Z,99768.84
2023-03-29T03:04:49.771Z,99752.34
2023-03-29T03:09:53.088Z,99737.31
2023-03-29T03:14:56.080Z,99749.53
2023-03-29T03:19:59.364Z,99744.91
2023-03-29T03:25:03.641Z,99735.03
2023-03-29T03:30:07.203Z,99729.50
2023-03-29T03:35:28.161Z,99722.41
2023-03-29T03:40:30.979Z,99696.22
2023-03-29T03:45:34.211Z,99692.63
2023-03-29T03:50:56.671Z,99699.66
2023-03-29T03:56:02.538Z,99686.47
2023-03-29T04:01:10.308Z,99665.28
2023-03-29T04:06:20.199Z,99683.53
2023-03-29T04:11:42.759Z,99665.19
2023-03-29T04:16:46.913Z,99655.28
2023-03-29T04:22:09.845Z,99653.97
2023-03-29T04:27:13.437Z,99651.69
2023-03-29T04:32:16.567Z,99648.47
2023-03-29T04:37:36.336Z,99649.63
2023-03-29T04:42:39.477Z,99649.03
2023-03-29T04:47:42.526Z,99646.75
2023-03-29T04:52:52.300Z,99621.28
2023-03-29T04:57:55.931Z,99632.53
2023-03-29T05:03:13.798Z,99632.72
2023-03-29T05:08:42.797Z,99607.41
2023-03-29T05:14:02.707Z,99584.63
2023-03-29T05:19:09.603Z,99579.78
2023-03-29T05:24:17.012Z,99573.09
2023-03-29T05:29:33.234Z,99564.81
2023-03-29T05:34:55.251Z,99560.72
2023-03-29T05:40:05.703Z,99552.34
2023-03-29T05:45:16.452Z,99554.09
2023-03-29T05:50:19.725Z,99544.09
2023-03-29T05:55:24.377Z,99526.50
2023-03-29T06:00:28.483Z,99525.09
2023-03-29T06:05:42.530Z,99510.75
2023-03-29T06:10:45.875Z,99513.78
2023-03-29T06:16:08.987Z,99500.34
2023-03-29T06:21:12.799Z,99495.34
2023-03-29T06:26:16.107Z,99487.66
2023-03-29T06:31:20.226Z,99483.38
2023-03-29T06:36:26.293Z,99475.69
2023-03-29T06:41:29.402Z,99479.97
2023-03-29T06:46:55.014Z,99468.00
2023-03-29T06:51:57.955Z,99465.41
2023-03-29T06:57:05.825Z,99470.53
2023-03-29T07:02:12.823Z,99453.41
2023-03-29T07:07:53.900Z,99444.84
2023-03-29T07:13:17.664Z,99438.03
2023-03-29T07:18:21.358Z,99438.91
2023-03-29T07:23:24.268Z,99418.28
2023-03-29T07:28:27.694Z,99413.13
2023-03-29T07:33:30.984Z,99413.06
2023-03-29T07:38:38.354Z,99406.16
2023-03-29T07:43:50.445Z,99407.00
2023-03-29T07:48:57.635Z,99399.25
2023-03-29T07:54:00.657Z,99400.91
2023-03-29T07:59:21.985Z,99379.44
2023-03-29T08:04:34.333Z,99398.25
2023-03-29T08:09:52.073Z,99381.06
2023-03-29T08:14:58.326Z,99376.75
2023-03-29T08:20:11.357Z,99387.00
2023-03-29T08:25:17.034Z,99372.38
2023-03-29T08:30:24.454Z,99358.72
2023-03-29T08:35:28.038Z,99362.97
2023-03-29T08:40:55.777Z,99350.91
2023-03-29T08:46:03.477Z,99354.31
2023-03-29T08:51:24.997Z,99351.69
2023-03-29T08:56:31.443Z,99342.28
2023-03-29T09:01:53.837Z,99328.56
2023-03-29T09:06:56.680Z,99346.50
2023-03-29T09:12:41.283Z,99347.34
2023-03-29T09:17:59.348Z,99335.31
2023-03-29T09:23:27.476Z,99338.72
2023-03-29T09:29:09.723Z,99327.66
2023-03-29T09:34:36.541Z,99336.16
2023-03-29T09:39:44.194Z,99325.91
2023-03-29T09:44:54.360Z,99300.28
2023-03-29T09:50:19.825Z,99295.97
2023-03-29T09:55:36.751Z,99317.34
2023-03-29T10:01:16.052Z,99322.50
2023-03-29T10:06:21.737Z,99320.00
2023-03-29T10:11:32.227Z,99309.72
2023-03-29T10:16:39.724Z,99302.97
2023-03-29T10:21:42.693Z,99295.28
2023-03-29T10:26:45.588Z,99297.03
2023-03-29T10:31:48.355Z,99299.69
2023-03-29T10:37:09.605Z,99294.59
2023-03-29T10:42:17.870Z,99304.09
2023-03-29T10:47:21.897Z,99296.50
2023-03-29T10:52:25.303Z,99294.78
2023-03-29T10:58:17.264Z,99265.75
2023-03-29T11:03:57.355Z,99294.84
2023-03-29T11:09:03.337Z,99275.25
2023-03-29T11:14:14.938Z,99293.31
2023-03-29T11:19:39.003Z,99286.56
2023-03-29T11:24:44.569Z,99284.84
2023-03-29T11:29:50.763Z,99281.50
2023-03-29T11:35:08.671Z,99286.72
2023-03-29T11:40:15.678Z,99283.31
2023-03-29T11:45:27.615Z,99281.66
2023-03-29T11:50:43.031Z,99287.72
2023-03-29T11:55:46.432Z,99286.91
2023-03-29T12:00:52.731Z,99301.41
2023-03-29T12:06:04.867Z,99300.59
2023-03-29T12:11:24.717Z,99294.63
2023-03-29T12:16:47.825Z,99307.44
2023-03-29T12:21:51.809Z,99309.97
2023-03-29T12:27:01.851Z,99321.06
2023-03-29T12:32:23.254Z,99333.75
2023-03-29T12:38:02.043Z,99345.59
2023-03-29T12:43:38.051Z,99360.06
2023-03-29T12:48:58.652Z,99378.75
2023-03-29T12:54:21.508Z,99387.09
2023-03-29T12:59:39.244Z,99393.91
2023-03-29T13:04:44.741Z,99388.78
2023-03-29T13:09:47.631Z,99392.22
2023-03-29T13:14:59.787Z,99387.97
2023-03-29T13:20:09.835Z,99399.81
2023-03-29T13:25:50.214Z,99414.19
2023-03-29T13:30:53.106Z,99410.69
2023-03-29T13:36:06.952Z,99413.13
2023-03-29T13:41:32.811Z,99420.75
2023-03-29T13:46:42.902Z,99415.59
2023-03-29T13:52:03.254Z,99420.59
2023-03-29T13:57:14.283Z,99420.50
2023-03-29T14:02:33.035Z,99432.19
2023-03-29T14:07:38.666Z,99431.94
2023-03-29T14:12:42.066Z,99454.09
2023-03-29T14:17:45.081Z,99521.78
2023-03-29T14:22:48.118Z,99551.72
2023-03-29T14:27:50.956Z,99575.97
2023-03-29T14:32:54.270Z,99589.03
2023-03-29T14:37:57.577Z,99624.81
2023-03-29T14:43:05.797Z,99690.19
2023-03-29T14:48:11.863Z,99657.94
2023-03-29T14:53:20.283Z,99674.16
2023-03-29T14:58:28.890Z,99691.19
2023-03-29T15:03:32.299Z,99738.66
2023-03-29T15:08:38.180Z,99733.44
2023-03-29T15:13:42.788Z,99750.69
2023-03-29T15:18:46.744Z,99743.59
2023-03-29T15:24:19.864Z,99782.28
2023-03-29T15:29:26.744Z,99779.31
2023-03-29T15:34:33.306Z,99760.19
2023-03-29T15:39:38.398Z,99789.78
2023-03-29T15:44:41.589Z,99778.44
2023-03-29T15:49:44.379Z,99793.06
2023-03-29T15:54:47.077Z,99783.91
2023-03-29T15:59:49.918Z,99823.53
2023-03-29T16:04:53.818Z,99813.50
2023-03-29T16:09:56.925Z,99814.47
2023-03-29T16:14:59.675Z,99835.63
2023-03-29T16:20:02.617Z,99830.63
2023-03-29T16:25:12.004Z,99840.75
2023-03-29T16:30:15.462Z,99837.97
2023-03-29T16:35:27.279Z,99848.34
2023-03-29T16:40:29.970Z,99855.47
2023-03-29T16:45:32.791Z,99877.25
2023-03-29T16:50:35.587Z,99890.97
2023-03-29T16:55:38.514Z,99908.00
2023-03-29T17:00:41.431Z,99903.66
2023-03-29T17:06:02.911Z,99894.91
2023-03-29T17:11:09.062Z,99908.97
2023-03-29T17:16:11.945Z,99901.09
2023-03-29T17:21:14.883Z,99921.91
2023-03-29T17:26:17.872Z,99927.50
2023-03-29T17:31:20.976Z,99928.69
2023-03-29T17:36:25.800Z,99916.91
2023-03-29T17:41:30.818Z,99927.50
2023-03-29T17:46:34.585Z,99933.28
2023-03-29T17:51:37.390Z,99932.09
2023-03-29T17:56:40.535Z,99934.44
2023-03-29T18:01:43.593Z,99949.63
2023-03-29T18:06:46.393Z,99938.47
2023-03-29T18:11:49.144Z,99971.59
2023-03-29T18:16:51.973Z,99964.81
2023-03-29T18:21:55.025Z,99975.28
2023-03-29T18:26:58.035Z,99978.13
2023-03-29T18:32:03.219Z,99977.78
2023-03-29T18:37:06.432Z,99995.00
2023-03-29T18:42:11.629Z,99980.88
2023-03-29T18:47:14.962Z,99992.53
2023-03-29T18:52:17.695Z,99999.28
2023-03-29T18:57:20.751Z,99991.38
2023-03-29T19:02:23.570Z,99998.56
2023-03-29T19:07:26.429Z,99993.88
2023-03-29T19:12:29.845Z,100009.41
2023-03-29T19:17:32.597Z,100012.91
2023-03-29T19:22:35.301Z,100006.72
2023-03-29T19:27:38.064Z,100005.19
2023-03-29T19:32:40.876Z,99997.28
2023-03-29T19:37:43.644Z,100004.66
2023-03-29T19:42:48.139Z,100005.06
2023-03-29T19:47:58.264Z,100014.84
2023-03-29T19:53:01.234Z,99997.16
2023-03-29T19:58:05.202Z,100021.16
2023-03-29T20:03:10.839Z,100013.56
2023-03-29T20:08:19.553Z,100033.22
2023-03-29T20:13:35.466Z,100028.13
2023-03-29T20:18:41.251Z,100037.69
2023-03-29T20:23:44.486Z,100023.47
2023-03-29T20:28:47.305Z,100024.75
2023-03-29T20:33:50.012Z,100032.16
2023-03-29T20:38:55.645Z,100031.38
2023-03-29T20:43:58.825Z,100026.03
2023-03-29T20:49:03.586Z,100038.47
2023-03-29T20:54:07.974Z,100041.69
2023-03-29T20:59:13.818Z,100035.19
2023-03-29T21:04:16.789Z,100061.16
2023-03-29T21:09:21.400Z,100046.56
2023-03-29T21:14:24.194Z,100055.81
2023-03-29T21:19:27.089Z,100057.53
2023-03-29T21:24:29.876Z,100087.25
2023-03-29T21:29:32.732Z,100086.19
2023-03-29T21:34:35.708Z,100071.91
2023-03-29T21:39:38.435Z,100077.91
2023-03-29T21:44:41.157Z,100070.56
2023-03-29T21:49:43.902Z,100064.88
2023-03-29T21:54:46.888Z,100078.88
2023-03-29T21:59:49.578Z,100086.13
2023-03-29T22:04:52.294Z,100071.56
2023-03-29T22:09:55.119Z,100099.63
2023-03-29T22:14:57.898Z,100099.66
2023-03-29T22:20:01.057Z,100084.97
2023-03-29T22:25:05.193Z,100104.66
2023-03-29T22:30:08.653Z,100105.94
2023-03-29T22:35:11.515Z,100103.31
2023-03-29T22:40:14.448Z,100111.09
2023-03-29T22:45:17.308Z,100117.94
2023-03-29T22:50:20.104Z,100112.50
2023-03-29T22:55:22.844Z,100126.94
2023-03-29T23:00:25.628Z,100135.16
2023-03-29T23:05:28.590Z,100139.28
2023-03-29T23:10:31.507Z,100164.84
2023-03-29T23:15:35.073Z,100148.75
2023-03-29T23:20:38.120Z,100146.13
2023-03-29T23:25:40.864Z,100137.56
2023-03-29T23:30:43.865Z,100171.06
2023-03-29T23:35:46.998Z,100136.94
2023-03-29T23:40:54.741Z,100157.97
2023-03-29T23:46:02.345Z,100160.84
2023-03-29T23:51:06.298Z,100162.22
2023-03-29T23:56:09.462Z,100167.56
